Ishigaki Airport

Airport
ICAO code: 
ROIG
IATA Code: 
ISG
Summary
ICAO Region: 
APAC
Territory: 
Location: 
Shiraho, Okinawa
Serving: 
Ishigaki
Elevation: 
86 ft
Coordinates: 
Aerial View: 
24° 23' 26.973" N, 124° 14' 45.139" E
Metar
Observation
ROIG 281100Z 06017KT 9999 -SHRA FEW012 SCT020 FEW025TCU BKN030 21/20 Q1015
Station
Ishigakijima
Date/Time
2022-01-28 11:00:00
Wind direction
60°
Wind speed
17 kts
Lowest cloud amount
few clouds
Temperature
21°C
Dew point
20°C
Humidity
94%
QNH
1015 hPa
Weather condition
light showers rain

New Ishigaki Airport, also branded as Painushima Ishigaki Airport, is a regional airport located in the Shiraho district of Ishigaki, Okinawa Prefecture, Japan.

Climatology

Humid Sub-tropical climate (Köppen climate classification Cwa)

Runways

Designator Length Width Surface Rops
4/22 1500 46 ASP Yes/Yes
Airport map: 
Aerial View: 

SKYbrary Partners:

Safety knowledge contributed by: